CMA CGM Pelleas — DFPH2 — position and weather

sailwx.info

Track history (hours):
 
Tides and Currents Weather Stations Pressure Air Temp Water Temp Dewpoint Dewpoint Depression Visibility Wind Speed Wind Dir Waves Ship Positions

CMA CGM Pelleas

Last reported at 2017-Dec-09 18:00 UTC. Time now 2017-Dec-12 21:57 UTC.
Position N 25°18' E 035°36'.

Length 350 m; draft 12.7 m.

Type: Cargo ship. MMSI: 218846000.

Wind from 330 at 13 knots

Barometer 1018.5 mb
Air temperature 22.0 ° C
Visibility: greater than 10.8 NM
Dewpoint 9.0 ° C
Water temperature 26.2 ° C

Date/timePositionNaut miles runAvg speedWind from/ knotsBaromVisibWave heightAir tempDewpointWater temp
2017-Dec-09 18:00N 25°18' E 035°36'   330 / 131018.510.8 22.0 9.026.2
2017-Dec-06 18:00N 33°42' E 024°42'   040 / 181026.510.8 14.510.721.5
2017-Dec-04 00:00N 36°48' E 001°54'21017.5 320 / 91029.510.8 14.0 2.820.1
2017-Dec-03 12:00N 36°12' W 002°24'13117.9 110 / 161026.010.8 12.0 2.918.9
2017-Dec-03 04:42N 35°60' W 005°05'419.7
2017-Dec-03 04:30N 35°59' W 005°10'1020.5
2017-Dec-03 04:00N 35°58' W 005°22'1020.4
2017-Dec-03 03:31N 35°56' W 005°34'1621.0
2017-Dec-03 02:44N 35°55' W 005°55'420.4
2017-Dec-03 02:31N 35°55' W 006°00'4919.3
2017-Dec-03 00:00N 35°54' W 007°00'43318.0 040 / 271022.510.8 14.0 1.321.6
2017-Dec-02 00:00N 36°42' W 015°54'20717.3 140 / 151025.010.8 17.0 8.222.0
2017-Dec-01 12:00N 37°00' W 020°12'15516.2 040 / 1351020.510.8 18.510.122.6
2017-Dec-01 02:26N 37°20' W 023°25'716.2
2017-Dec-01 02:00N 37°20' W 023°34'816.0
2017-Dec-01 01:30N 37°21' W 023°43'815.9
2017-Dec-01 01:00N 37°22' W 023°53'815.7
2017-Dec-01 00:30N 37°23' W 024°03'815.9
2017-Dec-01 00:00N 37°24' W 024°13'168.4
2017-Dec-01 00:00N 37°24' W 024°12'918.3 130 / 351014.0 5.4 19.017.422.6
2017-Nov-30 23:30N 37°25' W 024°23'816.5
2017-Nov-30 23:01N 37°26' W 024°33'917.1
2017-Nov-30 22:30N 37°26' W 024°44'917.3
2017-Nov-30 22:00N 37°27' W 024°55'917.2
2017-Nov-30 21:30N 37°28' W 025°06'817.0
2017-Nov-30 21:01N 37°29' W 025°16'917.0
2017-Nov-30 20:31N 37°30' W 025°27'917.0
2017-Nov-30 20:00N 37°31' W 025°38'816.9
2017-Nov-30 19:30N 37°33' W 025°48'917.4
2017-Nov-30 19:01N 37°35' W 025°59'917.5
2017-Nov-30 18:31N 37°37' W 026°10'917.8
2017-Nov-30 18:00N 37°38' W 026°21'917.9
2017-Nov-30 17:30N 37°40' W 026°32'918.0
2017-Nov-30 17:00N 37°41' W 026°43'917.9
2017-Nov-30 16:30N 37°43' W 026°54'918.0
2017-Nov-30 16:00N 37°45' W 027°05'5317.7
2017-Nov-30 16:00N 37°42' W 027°00'1428.7 090 / 201011.0 5.4 19.017.422.0
2017-Nov-30 15:30N 37°47' W 027°17'917.7
2017-Nov-30 15:00N 37°49' W 027°28'917.8
2017-Nov-30 14:30N 37°50' W 027°39'917.4
2017-Nov-30 14:00N 37°52' W 027°49'917.7
2017-Nov-30 13:30N 37°54' W 028°00'917.3
2017-Nov-30 13:00N 37°56' W 028°11'917.5
2017-Nov-30 12:30N 37°57' W 028°22'918.0
2017-Nov-30 12:00N 37°59' W 028°33'6421.8
2017-Nov-30 12:00N 37°54' W 028°30'1327.1 160 / 221011.010.8 19.017.422.0
2017-Nov-30 11:30N 38°01' W 028°44'918.1
2017-Nov-30 11:00N 38°03' W 028°56'918.6
2017-Nov-30 10:30N 38°04' W 029°07'918.7
2017-Nov-30 10:00N 38°06' W 029°19'1019.0
2017-Nov-30 09:30N 38°08' W 029°31'918.5
2017-Nov-30 09:00N 38°10' W 029°42'918.3
2017-Nov-30 08:30N 38°12' W 029°54'918.8
2017-Nov-30 08:00N 38°14' W 030°05'2113.4
2017-Nov-30 08:00N 38°12' W 030°06'918.9 180 / 281008.510.8 18.016.321.0
2017-Nov-30 07:30N 38°15' W 030°17'918.5
2017-Nov-30 07:00N 38°17' W 030°28'918.3
2017-Nov-30 06:30N 38°19' W 030°40'918.6
2017-Nov-30 06:00N 38°21' W 030°51'918.4
2017-Nov-30 05:30N 38°23' W 031°03'10318.6
2017-Nov-30 00:00N 38°42' W 033°12'   180 / 251005.010.8 19.017.421.1
Track history (hours):
 
Tides and Currents Weather Stations Pressure Air Temp Water Temp Dewpoint Dewpoint Depression Visibility Wind Speed Wind Dir Waves Ship Positions

CMA CGM Pelleas

Last reported at 2017-Dec-09 18:00 UTC. Time now 2017-Dec-12 21:57 UTC.
Position N 25°18' E 035°36'.

Length 350 m; draft 12.7 m.

Type: Cargo ship. MMSI: 218846000.

Wind from 330 at 13 knots

Barometer 1018.5 mb
Air temperature 22.0 ° C
Visibility: greater than 10.8 NM
Dewpoint 9.0 ° C
Water temperature 26.2 ° C

Date/timePositionNaut miles runAvg speedWind from/ knotsBaromVisibWave heightAir tempDewpointWater temp
2017-Dec-09 18:00N 25°18' E 035°36'   330 / 131018.510.8 22.0 9.026.2
2017-Dec-06 18:00N 33°42' E 024°42'   040 / 181026.510.8 14.510.721.5
2017-Dec-04 00:00N 36°48' E 001°54'21017.5 320 / 91029.510.8 14.0 2.820.1
2017-Dec-03 12:00N 36°12' W 002°24'13117.9 110 / 161026.010.8 12.0 2.918.9
2017-Dec-03 04:42N 35°60' W 005°05'419.7
2017-Dec-03 04:30N 35°59' W 005°10'1020.5
2017-Dec-03 04:00N 35°58' W 005°22'1020.4
2017-Dec-03 03:31N 35°56' W 005°34'1621.0
2017-Dec-03 02:44N 35°55' W 005°55'420.4
2017-Dec-03 02:31N 35°55' W 006°00'4919.3
2017-Dec-03 00:00N 35°54' W 007°00'43318.0 040 / 271022.510.8 14.0 1.321.6
2017-Dec-02 00:00N 36°42' W 015°54'20717.3 140 / 151025.010.8 17.0 8.222.0
2017-Dec-01 12:00N 37°00' W 020°12'15516.2 040 / 1351020.510.8 18.510.122.6
2017-Dec-01 02:26N 37°20' W 023°25'716.2
2017-Dec-01 02:00N 37°20' W 023°34'816.0
2017-Dec-01 01:30N 37°21' W 023°43'815.9
2017-Dec-01 01:00N 37°22' W 023°53'815.7
2017-Dec-01 00:30N 37°23' W 024°03'815.9
2017-Dec-01 00:00N 37°24' W 024°13'168.4
2017-Dec-01 00:00N 37°24' W 024°12'918.3 130 / 351014.0 5.4 19.017.422.6
2017-Nov-30 23:30N 37°25' W 024°23'816.5
2017-Nov-30 23:01N 37°26' W 024°33'917.1
2017-Nov-30 22:30N 37°26' W 024°44'917.3
2017-Nov-30 22:00N 37°27' W 024°55'917.2
2017-Nov-30 21:30N 37°28' W 025°06'817.0
2017-Nov-30 21:01N 37°29' W 025°16'917.0
2017-Nov-30 20:31N 37°30' W 025°27'917.0
2017-Nov-30 20:00N 37°31' W 025°38'816.9
2017-Nov-30 19:30N 37°33' W 025°48'917.4
2017-Nov-30 19:01N 37°35' W 025°59'917.5
2017-Nov-30 18:31N 37°37' W 026°10'917.8
2017-Nov-30 18:00N 37°38' W 026°21'917.9
2017-Nov-30 17:30N 37°40' W 026°32'918.0
2017-Nov-30 17:00N 37°41' W 026°43'917.9
2017-Nov-30 16:30N 37°43' W 026°54'918.0
2017-Nov-30 16:00N 37°45' W 027°05'5317.7
2017-Nov-30 16:00N 37°42' W 027°00'1428.7 090 / 201011.0 5.4 19.017.422.0
2017-Nov-30 15:30N 37°47' W 027°17'917.7
2017-Nov-30 15:00N 37°49' W 027°28'917.8
2017-Nov-30 14:30N 37°50' W 027°39'917.4
2017-Nov-30 14:00N 37°52' W 027°49'917.7
2017-Nov-30 13:30N 37°54' W 028°00'917.3
2017-Nov-30 13:00N 37°56' W 028°11'917.5
2017-Nov-30 12:30N 37°57' W 028°22'918.0
2017-Nov-30 12:00N 37°59' W 028°33'6421.8
2017-Nov-30 12:00N 37°54' W 028°30'1327.1 160 / 221011.010.8 19.017.422.0
2017-Nov-30 11:30N 38°01' W 028°44'918.1
2017-Nov-30 11:00N 38°03' W 028°56'918.6
2017-Nov-30 10:30N 38°04' W 029°07'918.7
2017-Nov-30 10:00N 38°06' W 029°19'1019.0
2017-Nov-30 09:30N 38°08' W 029°31'918.5
2017-Nov-30 09:00N 38°10' W 029°42'918.3
2017-Nov-30 08:30N 38°12' W 029°54'918.8
2017-Nov-30 08:00N 38°14' W 030°05'2113.4
2017-Nov-30 08:00N 38°12' W 030°06'918.9 180 / 281008.510.8 18.016.321.0
2017-Nov-30 07:30N 38°15' W 030°17'918.5
2017-Nov-30 07:00N 38°17' W 030°28'918.3
2017-Nov-30 06:30N 38°19' W 030°40'918.6
2017-Nov-30 06:00N 38°21' W 030°51'918.4
2017-Nov-30 05:30N 38°23' W 031°03'10318.6
2017-Nov-30 00:00N 38°42' W 033°12'   180 / 251005.010.8 19.017.421.1

Dump ship's entire track history